createdAt,value
2017-12-01T00:02:15.132Z,12.35
2017-12-01T00:04:42.627Z,11.80
2017-12-01T00:07:10.128Z,12.30
2017-12-01T00:09:38.403Z,11.73
2017-12-01T00:12:06.686Z,12.82
2017-12-01T00:14:34.950Z,12.93
2017-12-01T00:17:02.476Z,13.70
2017-12-01T00:19:29.977Z,14.07
2017-12-01T00:21:58.257Z,13.70
2017-12-01T00:24:26.535Z,13.07
2017-12-01T00:26:54.803Z,14.55
2017-12-01T00:29:23.287Z,14.65
2017-12-01T00:31:51.567Z,15.25
2017-12-01T00:34:19.941Z,16.15
2017-12-01T00:36:48.297Z,15.45
2017-12-01T00:39:15.787Z,13.98
2017-12-01T00:41:44.055Z,12.60
2017-12-01T00:44:12.331Z,13.75
2017-12-01T00:46:40.623Z,13.90
2017-12-01T00:49:08.131Z,14.73
2017-12-01T00:51:35.626Z,13.27
2017-12-01T00:54:03.899Z,13.73
2017-12-01T00:56:32.163Z,13.88
2017-12-01T00:58:59.668Z,14.52
2017-12-01T01:01:27.168Z,14.45
2017-12-01T01:03:54.683Z,15.57
2017-12-01T01:06:22.195Z,15.60
2017-12-01T01:08:49.686Z,14.38
2017-12-01T01:11:17.201Z,15.90
2017-12-01T01:13:44.714Z,14.55
2017-12-01T01:16:12.203Z,13.68
2017-12-01T01:18:39.907Z,15.60
2017-12-01T01:21:08.186Z,16.12
2017-12-01T01:23:36.462Z,15.40
2017-12-01T01:26:04.727Z,15.15
2017-12-01T01:28:33.011Z,16.33
2017-12-01T01:31:01.275Z,15.23
2017-12-01T01:33:28.963Z,16.48
2017-12-01T01:35:57.228Z,15.10
2017-12-01T01:38:25.507Z,15.27
2017-12-01T01:40:53.767Z,16.23
2017-12-01T01:43:21.278Z,15.45
2017-12-01T01:45:48.780Z,16.73
2017-12-01T01:48:16.291Z,16.15
2017-12-01T01:50:43.783Z,15.70
2017-12-01T01:53:11.291Z,15.98
2017-12-01T01:55:38.798Z,18.33
2017-12-01T01:58:06.304Z,17.77
2017-12-01T02:00:33.826Z,15.98
2017-12-01T02:03:01.319Z,16.70
2017-12-01T02:05:28.819Z,15.70
2017-12-01T02:07:56.320Z,17.65
2017-12-01T02:10:24.676Z,17.08
2017-12-01T02:12:52.947Z,15.88
2017-12-01T02:15:20.456Z,16.83
2017-12-01T02:17:47.972Z,16.60
2017-12-01T02:20:15.544Z,16.73
2017-12-01T02:22:43.016Z,16.60
2017-12-01T02:25:11.279Z,16.98
2017-12-01T02:27:39.559Z,17.48
2017-12-01T02:30:07.823Z,17.10
2017-12-01T02:32:35.339Z,17.75
2017-12-01T02:35:02.835Z,17.55
2017-12-01T02:37:30.336Z,19.35
2017-12-01T02:39:57.831Z,19.23
2017-12-01T02:42:25.335Z,18.83
2017-12-01T02:44:53.603Z,19.25
2017-12-01T02:47:21.875Z,19.20
2017-12-01T02:49:50.135Z,18.50
2017-12-01T02:52:17.644Z,17.75
2017-12-01T02:54:50.068Z,19.23
2017-12-01T02:57:17.563Z,19.80
2017-12-01T02:59:45.176Z,19.35
2017-12-01T03:02:12.671Z,20.45
2017-12-01T03:04:40.935Z,17.90
2017-12-01T03:07:09.195Z,19.83
2017-12-01T03:09:36.695Z,17.67
2017-12-01T03:12:04.191Z,19.58
2017-12-01T03:14:31.707Z,18.98
2017-12-01T03:16:59.223Z,18.12
2017-12-01T03:19:26.719Z,19.35
2017-12-01T03:21:54.995Z,18.92
2017-12-01T03:24:23.276Z,18.60
2017-12-01T03:26:50.772Z,18.02
2017-12-01T03:29:18.383Z,16.87
2017-12-01T03:31:46.659Z,17.02
2017-12-01T03:34:14.927Z,17.45
2017-12-01T03:36:43.240Z,17.58
2017-12-01T03:39:10.757Z,15.35
2017-12-01T03:41:39.027Z,18.73
2017-12-01T03:44:06.707Z,16.90
2017-12-01T03:46:34.979Z,16.73
2017-12-01T03:49:03.239Z,17.27
2017-12-01T03:51:30.751Z,18.60
2017-12-01T03:53:58.270Z,16.73
2017-12-01T03:56:26.532Z,17.08
2017-12-01T03:58:54.031Z,16.87
2017-12-01T04:01:21.551Z,15.88
2017-12-01T04:03:49.043Z,15.18
2017-12-01T04:06:16.568Z,16.70
2017-12-01T04:08:44.256Z,15.73
2017-12-01T04:11:12.520Z,16.95
2017-12-01T04:13:40.983Z,17.48
2017-12-01T04:16:08.483Z,17.45
2017-12-01T04:18:35.976Z,18.00
2017-12-01T04:21:03.703Z,17.62
2017-12-01T04:23:31.199Z,16.95
2017-12-01T04:25:58.696Z,18.35
2017-12-01T04:28:26.969Z,16.60
2017-12-01T04:30:54.579Z,15.57
2017-12-01T04:33:22.075Z,18.08
2017-12-01T04:35:50.339Z,17.25
2017-12-01T04:38:17.844Z,17.48
2017-12-01T04:40:46.098Z,15.00
2017-12-01T04:43:13.610Z,15.60
2017-12-01T04:45:41.104Z,17.37
2017-12-01T04:48:08.601Z,16.17
2017-12-01T04:50:36.094Z,15.70
2017-12-01T04:53:03.603Z,16.08
2017-12-01T04:55:31.874Z,15.98
2017-12-01T04:58:00.135Z,16.65
2017-12-01T05:00:27.654Z,16.05
2017-12-01T05:02:55.152Z,17.55
2017-12-01T05:05:22.675Z,17.23
2017-12-01T05:07:50.171Z,18.10
2017-12-01T05:10:17.692Z,18.58
2017-12-01T05:12:45.412Z,16.73
2017-12-01T05:15:13.675Z,18.27
2017-12-01T05:17:41.951Z,24.98
2017-12-01T05:20:10.229Z,49.17
2017-12-01T05:22:38.511Z,67.60
2017-12-01T05:25:06.792Z,101.07
2017-12-01T05:27:35.083Z,81.22
2017-12-01T05:30:02.584Z,50.63
2017-12-01T05:32:30.095Z,40.83
2017-12-01T05:34:57.751Z,39.22
2017-12-01T05:37:26.034Z,35.50
2017-12-01T05:39:53.535Z,34.40
2017-12-01T05:42:21.027Z,43.92
2017-12-01T05:44:48.531Z,44.70
2017-12-01T05:47:16.032Z,41.92
2017-12-01T05:49:43.527Z,24.73
2017-12-01T05:52:11.030Z,18.83
2017-12-01T05:54:38.532Z,17.40
2017-12-01T05:57:06.808Z,18.23
2017-12-01T05:59:35.099Z,19.42
2017-12-01T06:02:02.612Z,24.27
2017-12-01T06:04:30.121Z,25.80
2017-12-01T06:06:57.624Z,21.80
2017-12-01T06:09:25.122Z,20.23
2017-12-01T06:11:53.407Z,21.92
2017-12-01T06:14:20.936Z,26.80
2017-12-01T06:16:48.432Z,32.05
2017-12-01T06:19:15.939Z,32.72
2017-12-01T06:21:43.453Z,36.45
2017-12-01T06:24:10.960Z,24.95
2017-12-01T06:26:38.647Z,29.02
2017-12-01T06:29:06.912Z,30.10
2017-12-01T06:31:35.195Z,27.67
2017-12-01T06:34:03.479Z,26.20
2017-12-01T06:36:31.807Z,27.08
2017-12-01T06:38:59.311Z,28.17
2017-12-01T06:41:27.594Z,33.72
2017-12-01T06:43:55.870Z,31.23
2017-12-01T06:46:24.134Z,29.67
2017-12-01T06:48:52.420Z,33.42
2017-12-01T06:51:20.807Z,27.15
2017-12-01T06:53:48.306Z,19.85
2017-12-01T06:56:15.803Z,19.30
2017-12-01T06:58:44.083Z,17.67
2017-12-01T07:01:12.347Z,17.83
2017-12-01T07:03:39.845Z,17.62
2017-12-01T07:06:07.339Z,16.42
2017-12-01T07:08:34.853Z,19.17
2017-12-01T07:11:02.375Z,17.92
2017-12-01T07:13:29.882Z,19.17
2017-12-01T07:15:57.384Z,20.35
2017-12-01T07:18:24.908Z,20.50
2017-12-01T07:20:52.432Z,20.35
2017-12-01T07:23:20.699Z,19.87
2017-12-01T07:25:48.975Z,48.80
2017-12-01T07:28:17.258Z,38.38
2017-12-01T07:30:45.539Z,36.83
2017-12-01T07:33:13.803Z,29.90
2017-12-01T07:35:42.080Z,23.60
2017-12-01T07:38:10.350Z,23.67
2017-12-01T07:40:37.903Z,21.62
2017-12-01T07:43:06.179Z,22.30
2017-12-01T07:45:37.196Z,22.77
2017-12-01T07:48:04.692Z,21.45
2017-12-01T07:50:32.960Z,20.65
2017-12-01T07:53:00.472Z,21.00
2017-12-01T07:55:27.973Z,23.52
2017-12-01T07:57:55.479Z,22.17
2017-12-01T08:00:22.983Z,22.05
2017-12-01T08:02:50.507Z,21.83
2017-12-01T08:05:18.011Z,22.33
2017-12-01T08:07:45.519Z,21.10
2017-12-01T08:10:13.029Z,18.80
2017-12-01T08:12:40.571Z,17.87
2017-12-01T08:15:08.095Z,19.52
2017-12-01T08:17:35.598Z,19.35
2017-12-01T08:20:03.100Z,19.60
2017-12-01T08:22:42.545Z,20.12
2017-12-01T08:25:22.088Z,21.67
2017-12-01T08:27:49.588Z,23.42
2017-12-01T08:30:17.096Z,25.48
2017-12-01T08:32:44.599Z,22.52
2017-12-01T08:35:12.117Z,21.80
2017-12-01T08:37:39.636Z,23.58
2017-12-01T08:40:07.899Z,23.02
2017-12-01T08:42:35.587Z,21.25
2017-12-01T08:45:03.850Z,21.12
2017-12-01T08:47:31.351Z,19.17
2017-12-01T08:49:58.867Z,18.65
2017-12-01T08:52:27.180Z,18.80
2017-12-01T08:54:55.429Z,18.65
2017-12-01T08:57:24.427Z,17.65
2017-12-01T08:59:52.715Z,17.30
2017-12-01T09:02:20.215Z,16.65
2017-12-01T09:04:47.707Z,19.20
2017-12-01T09:07:15.221Z,20.12
2017-12-01T09:09:42.714Z,26.98
2017-12-01T09:12:10.224Z,25.83
2017-12-01T09:14:37.871Z,25.30
2017-12-01T09:17:05.382Z,28.60
2017-12-01T09:19:32.881Z,24.60
2017-12-01T09:22:01.157Z,24.60
2017-12-01T09:24:29.434Z,24.83
2017-12-01T09:26:57.719Z,25.95
2017-12-01T09:29:25.288Z,25.08
2017-12-01T09:31:52.803Z,30.98
2017-12-01T09:34:20.319Z,26.58
2017-12-01T09:36:48.035Z,26.60
2017-12-01T09:39:16.361Z,26.33
2017-12-01T09:41:43.851Z,28.00
2017-12-01T09:44:11.360Z,26.05
2017-12-01T09:46:38.871Z,28.50
2017-12-01T09:49:07.147Z,29.52
2017-12-01T09:51:34.648Z,31.33
2017-12-01T09:54:02.160Z,28.55
2017-12-01T09:56:29.772Z,34.75
2017-12-01T09:58:57.407Z,31.58
2017-12-01T10:01:25.679Z,35.28
2017-12-01T10:03:53.948Z,30.25
2017-12-01T10:06:21.446Z,34.38
2017-12-01T10:08:48.943Z,33.35
2017-12-01T10:11:16.458Z,32.33
2017-12-01T10:13:43.991Z,32.08
2017-12-01T10:16:12.475Z,28.52
2017-12-01T10:18:40.751Z,28.08
2017-12-01T10:21:09.031Z,29.60
2017-12-01T10:23:37.303Z,28.33
2017-12-01T10:26:05.567Z,26.37
2017-12-01T10:28:33.089Z,29.42
2017-12-01T10:31:00.595Z,27.50
2017-12-01T10:33:28.972Z,31.33
2017-12-01T10:35:57.231Z,32.00
2017-12-01T10:38:24.739Z,25.88
2017-12-01T10:40:52.351Z,27.42
2017-12-01T10:43:19.843Z,26.92
2017-12-01T10:45:47.341Z,28.92
2017-12-01T10:48:14.854Z,25.08
2017-12-01T10:50:43.339Z,27.70
2017-12-01T10:53:11.600Z,26.40
2017-12-01T10:55:39.868Z,24.45
2017-12-01T10:58:07.391Z,24.60
2017-12-01T11:00:34.895Z,26.37
2017-12-01T11:03:04.071Z,24.25
2017-12-01T11:05:31.571Z,23.50
2017-12-01T11:07:59.068Z,22.85
2017-12-01T11:10:26.581Z,26.27
2017-12-01T11:12:54.835Z,22.62
2017-12-01T11:15:22.331Z,23.35
2017-12-01T11:17:49.959Z,23.50
2017-12-01T11:20:18.334Z,22.17
2017-12-01T11:22:46.599Z,24.12
2017-12-01T11:25:14.095Z,22.30
2017-12-01T11:27:41.592Z,20.30
2017-12-01T11:30:09.092Z,22.70
2017-12-01T11:32:37.355Z,24.98
2017-12-01T11:35:04.851Z,23.92
2017-12-01T11:37:32.355Z,24.25
2017-12-01T11:39:59.851Z,23.75
2017-12-01T11:42:28.111Z,25.60
2017-12-01T11:44:56.371Z,22.05
2017-12-01T11:47:23.903Z,26.48
2017-12-01T11:49:51.616Z,27.30
2017-12-01T11:52:19.883Z,29.10
2017-12-01T11:54:47.396Z,26.85
2017-12-01T11:57:14.917Z,29.90
2017-12-01T11:59:43.171Z,31.25
2017-12-01T12:02:10.699Z,31.90
2017-12-01T12:04:38.195Z,31.75
2017-12-01T12:07:06.683Z,31.48
2017-12-01T12:09:34.947Z,28.15
2017-12-01T12:12:03.219Z,28.38
2017-12-01T12:14:30.715Z,31.02
2017-12-01T12:16:58.212Z,25.92
2017-12-01T12:19:25.715Z,29.48
2017-12-01T12:21:53.971Z,29.15
2017-12-01T12:24:21.483Z,31.00
2017-12-01T12:26:48.984Z,31.52
2017-12-01T12:29:17.251Z,37.25
2017-12-01T12:31:44.751Z,34.80
2017-12-01T12:34:12.276Z,37.90
2017-12-01T12:36:39.888Z,34.70
2017-12-01T12:39:07.385Z,35.20
2017-12-01T12:41:34.887Z,36.22
2017-12-01T12:44:02.412Z,39.22
2017-12-01T12:46:29.918Z,44.83
2017-12-01T12:48:57.435Z,42.90
2017-12-01T12:51:25.755Z,45.70
2017-12-01T12:53:53.263Z,43.78
2017-12-01T12:56:20.763Z,46.60
2017-12-01T12:58:48.254Z,41.50
2017-12-01T13:01:15.775Z,50.72
2017-12-01T13:03:43.302Z,42.92
2017-12-01T13:06:10.807Z,42.15
2017-12-01T13:08:38.311Z,45.65
2017-12-01T13:11:05.827Z,40.40
2017-12-01T13:13:33.387Z,46.08
2017-12-01T13:16:00.883Z,79.43
2017-12-01T13:18:28.579Z,47.92
2017-12-01T13:20:56.839Z,37.33
2017-12-01T13:23:24.339Z,43.72
2017-12-01T13:25:51.972Z,39.38
2017-12-01T13:28:20.235Z,36.22
2017-12-01T13:30:47.911Z,34.88
2017-12-01T13:33:16.175Z,33.88
2017-12-01T13:35:44.587Z,33.28
2017-12-01T13:38:13.043Z,34.25
2017-12-01T13:40:41.320Z,36.95
2017-12-01T13:43:09.599Z,34.38
2017-12-01T13:45:37.862Z,33.75
2017-12-01T13:48:06.147Z,35.00
2017-12-01T13:50:34.425Z,36.90
2017-12-01T13:53:02.684Z,34.55
2017-12-01T13:55:30.211Z,35.05
2017-12-01T13:57:57.711Z,34.75
2017-12-01T14:00:26.028Z,33.85
2017-12-01T14:02:53.543Z,35.28
2017-12-01T14:05:21.056Z,33.70
2017-12-01T14:07:48.652Z,35.63
2017-12-01T14:10:16.153Z,33.97
2017-12-01T14:12:43.900Z,36.47
2017-12-01T14:15:12.159Z,33.90
2017-12-01T14:17:39.663Z,34.33
2017-12-01T14:20:07.179Z,35.47
2017-12-01T14:22:34.867Z,36.38
2017-12-01T14:25:02.367Z,35.58
2017-12-01T14:27:29.867Z,35.17
2017-12-01T14:29:58.147Z,36.08
2017-12-01T14:32:26.412Z,37.20
2017-12-01T14:34:54.703Z,35.75
2017-12-01T14:37:22.980Z,35.97
2017-12-01T14:39:51.360Z,36.20
2017-12-01T14:42:19.639Z,38.42
2017-12-01T14:44:47.907Z,34.90
2017-12-01T14:47:16.167Z,31.85
2017-12-01T14:49:43.706Z,39.25
2017-12-01T14:52:11.207Z,33.70
2017-12-01T14:54:39.476Z,35.00
2017-12-01T14:57:07.735Z,36.05
2017-12-01T14:59:35.263Z,33.50
2017-12-01T15:02:02.779Z,58.03
2017-12-01T15:04:30.300Z,51.08
2017-12-01T15:06:57.998Z,43.42
2017-12-01T15:09:26.259Z,38.30
2017-12-01T15:11:54.531Z,37.88
2017-12-01T15:14:22.027Z,32.67
2017-12-01T15:16:49.531Z,34.65
2017-12-01T15:19:17.051Z,37.80
2017-12-01T15:21:44.547Z,32.15
2017-12-01T15:24:12.047Z,33.08
2017-12-01T15:26:39.575Z,34.15
2017-12-01T15:29:07.092Z,38.08
2017-12-01T15:31:34.587Z,34.15
2017-12-01T15:34:02.087Z,33.50
2017-12-01T15:36:29.583Z,33.10
2017-12-01T15:38:57.078Z,41.25
2017-12-01T15:41:25.342Z,40.15
2017-12-01T15:43:52.847Z,44.22
2017-12-01T15:46:20.346Z,41.15
2017-12-01T15:48:47.940Z,42.38
2017-12-01T15:51:16.227Z,42.72
2017-12-01T15:53:43.876Z,47.40
2017-12-01T15:56:12.263Z,46.97
2017-12-01T15:58:40.543Z,48.60
2017-12-01T16:01:08.060Z,42.78
2017-12-01T16:03:35.579Z,39.92
2017-12-01T16:06:03.517Z,40.70
2017-12-01T16:08:31.793Z,44.47
2017-12-01T16:11:00.068Z,41.17
2017-12-01T16:13:28.550Z,42.92
2017-12-01T16:15:56.834Z,36.60
2017-12-01T16:18:25.111Z,42.72
2017-12-01T16:20:52.615Z,39.60
2017-12-01T16:23:20.123Z,35.10
2017-12-01T16:25:48.380Z,34.25
2017-12-01T16:28:15.889Z,34.78
2017-12-01T16:30:43.402Z,36.65
2017-12-01T16:33:11.675Z,35.72
2017-12-01T16:35:39.947Z,37.10
2017-12-01T16:38:07.445Z,33.35
2017-12-01T16:40:34.948Z,32.92
2017-12-01T16:43:02.439Z,36.50
2017-12-01T16:45:30.698Z,31.05
2017-12-01T16:47:58.216Z,26.67
2017-12-01T16:50:25.715Z,23.67
2017-12-01T16:52:53.215Z,34.70
2017-12-01T16:55:21.779Z,32.35
2017-12-01T16:57:50.067Z,33.95
2017-12-01T17:00:17.567Z,29.95
2017-12-01T17:02:45.179Z,28.38
2017-12-01T17:05:12.691Z,30.83
2017-12-01T17:07:40.212Z,37.72
2017-12-01T17:10:07.734Z,39.55
2017-12-01T17:12:36.231Z,38.70
2017-12-01T17:15:04.508Z,31.80
2017-12-01T17:17:32.783Z,41.65
2017-12-01T17:20:01.063Z,36.58
2017-12-01T17:22:29.347Z,35.30
2017-12-01T17:24:56.860Z,34.60
2017-12-01T17:27:25.127Z,44.70
2017-12-01T17:29:52.731Z,37.00
2017-12-01T17:32:21.003Z,34.47
2017-12-01T17:34:49.287Z,34.65
2017-12-01T17:37:17.571Z,33.72
2017-12-01T17:39:45.079Z,38.33
2017-12-01T17:42:12.596Z,35.95
2017-12-01T17:44:40.099Z,32.53
2017-12-01T17:47:07.612Z,30.40
2017-12-01T17:49:35.116Z,47.20
2017-12-01T17:52:02.620Z,36.85
2017-12-01T17:54:30.147Z,31.52
2017-12-01T17:56:57.639Z,26.17
2017-12-01T17:59:25.144Z,26.65
2017-12-01T18:01:52.643Z,25.60
2017-12-01T18:04:20.915Z,36.15
2017-12-01T18:06:49.198Z,39.25
2017-12-01T18:09:17.479Z,28.58
2017-12-01T18:11:45.027Z,25.62
2017-12-01T18:14:13.295Z,23.20
2017-12-01T18:16:41.563Z,21.20
2017-12-01T18:19:09.067Z,20.85
2017-12-01T18:21:36.570Z,20.77
2017-12-01T18:24:04.852Z,24.52
2017-12-01T18:26:32.366Z,25.88
2017-12-01T18:28:59.863Z,25.58
2017-12-01T18:31:27.370Z,24.70
2017-12-01T18:33:54.882Z,26.77
2017-12-01T18:36:22.390Z,28.45
2017-12-01T18:38:49.891Z,25.95
2017-12-01T18:41:17.399Z,30.55
2017-12-01T18:43:44.904Z,28.87
2017-12-01T18:46:12.427Z,30.55
2017-12-01T18:48:39.931Z,31.37
2017-12-01T18:51:08.224Z,33.05
2017-12-01T18:53:36.495Z,25.92
2017-12-01T18:56:04.002Z,29.60
2017-12-01T18:58:31.503Z,27.98
2017-12-01T19:00:59.009Z,24.33
2017-12-01T19:03:26.527Z,28.55
2017-12-01T19:05:54.034Z,34.33
2017-12-01T19:08:21.554Z,35.13
2017-12-01T19:10:49.828Z,31.98
2017-12-01T19:13:18.102Z,32.47
2017-12-01T19:15:46.460Z,30.95
2017-12-01T19:18:13.976Z,31.75
2017-12-01T19:20:41.481Z,31.33
2017-12-01T19:23:08.981Z,31.40
2017-12-01T19:25:36.499Z,30.83
2017-12-01T19:28:04.763Z,30.37
2017-12-01T19:30:32.275Z,28.75
2017-12-01T19:32:59.807Z,29.20
2017-12-01T19:35:28.096Z,29.70
2017-12-01T19:37:56.368Z,29.08
2017-12-01T19:40:24.638Z,29.17
2017-12-01T19:42:52.911Z,30.85
2017-12-01T19:45:21.205Z,30.10
2017-12-01T19:47:48.710Z,29.40
2017-12-01T19:50:16.231Z,27.60
2017-12-01T19:52:43.723Z,27.87
2017-12-01T19:55:11.247Z,27.62
2017-12-01T19:57:38.747Z,28.85
2017-12-01T20:00:06.272Z,30.23
2017-12-01T20:02:33.907Z,31.90
2017-12-01T20:05:02.182Z,27.33
2017-12-01T20:07:30.466Z,29.42
2017-12-01T20:09:58.727Z,29.10
2017-12-01T20:12:26.223Z,29.65
2017-12-01T20:14:53.731Z,28.50
2017-12-01T20:17:21.231Z,28.52
2017-12-01T20:19:48.885Z,30.77
2017-12-01T20:22:16.412Z,28.90
2017-12-01T20:24:43.922Z,29.37
2017-12-01T20:27:11.427Z,30.77
2017-12-01T20:29:38.927Z,28.98
2017-12-01T20:32:06.447Z,27.37
2017-12-01T20:34:33.955Z,26.40
2017-12-01T20:37:01.476Z,26.85
2017-12-01T20:39:29.789Z,26.30
2017-12-01T20:41:57.280Z,26.37
2017-12-01T20:44:24.784Z,24.73
2017-12-01T20:46:53.063Z,25.75
2017-12-01T20:49:21.335Z,24.80
2017-12-01T20:51:49.608Z,24.77
2017-12-01T20:54:17.871Z,25.10
2017-12-01T20:56:45.379Z,24.02
2017-12-01T20:59:12.899Z,23.95
2017-12-01T21:01:41.167Z,22.55
2017-12-01T21:04:09.651Z,25.62
2017-12-01T21:06:37.924Z,24.67
2017-12-01T21:09:06.196Z,25.30
2017-12-01T21:11:34.467Z,24.30
2017-12-01T21:14:01.980Z,24.92
2017-12-01T21:16:29.491Z,24.40
2017-12-01T21:18:57.867Z,25.65
2017-12-01T21:21:25.375Z,24.48
2017-12-01T21:23:52.879Z,25.48
2017-12-01T21:26:20.375Z,23.50
2017-12-01T21:28:47.895Z,24.80
2017-12-01T21:31:15.404Z,25.85
2017-12-01T21:33:42.924Z,26.48
2017-12-01T21:36:11.191Z,24.63
2017-12-01T21:38:39.460Z,24.40
2017-12-01T21:41:06.959Z,25.48
2017-12-01T21:43:34.459Z,27.45
2017-12-01T21:46:01.969Z,25.70
2017-12-01T21:48:29.498Z,26.67
2017-12-01T21:50:57.783Z,27.65
2017-12-01T21:53:25.291Z,27.30
2017-12-01T21:55:52.805Z,27.45
2017-12-01T21:58:21.067Z,28.48
2017-12-01T22:00:48.758Z,26.87
2017-12-01T22:03:17.043Z,25.95
2017-12-01T22:05:44.548Z,24.40
2017-12-01T22:08:12.047Z,25.95
2017-12-01T22:10:40.316Z,26.23
2017-12-01T22:13:08.586Z,27.23
2017-12-01T22:15:36.851Z,25.42
2017-12-01T22:18:04.382Z,24.85
2017-12-01T22:20:31.879Z,27.60
2017-12-01T22:23:00.150Z,27.05
2017-12-01T22:25:27.651Z,27.00
2017-12-01T22:27:55.147Z,28.60
2017-12-01T22:30:22.650Z,25.65
2017-12-01T22:32:50.159Z,27.70
2017-12-01T22:35:17.663Z,27.58
2017-12-01T22:37:45.936Z,29.25
2017-12-01T22:40:14.195Z,26.75
2017-12-01T22:42:41.703Z,28.52
2017-12-01T22:45:09.224Z,26.48
2017-12-01T22:47:37.487Z,25.70
2017-12-01T22:50:05.003Z,25.70
2017-12-01T22:52:32.514Z,27.40
2017-12-01T22:55:00.799Z,27.25
2017-12-01T22:57:29.059Z,26.77
2017-12-01T22:59:57.327Z,25.77
2017-12-01T23:02:25.596Z,27.25
2017-12-01T23:04:53.213Z,26.77
2017-12-01T23:07:20.747Z,26.85
2017-12-01T23:09:49.007Z,27.55
2017-12-01T23:12:17.294Z,28.77
2017-12-01T23:14:45.579Z,27.83
2017-12-01T23:17:13.868Z,25.50
2017-12-01T23:19:41.371Z,26.20
2017-12-01T23:22:09.063Z,25.62
2017-12-01T23:24:37.353Z,26.17
2017-12-01T23:27:04.891Z,25.95
2017-12-01T23:29:32.418Z,26.12
2017-12-01T23:31:59.919Z,25.65
2017-12-01T23:34:28.178Z,25.12
2017-12-01T23:36:55.681Z,28.98
2017-12-01T23:39:23.192Z,27.98
2017-12-01T23:41:51.464Z,26.95
2017-12-01T23:44:18.960Z,28.05
2017-12-01T23:46:46.467Z,28.33
2017-12-01T23:49:13.988Z,29.12
2017-12-01T23:51:41.479Z,30.02
2017-12-01T23:54:08.976Z,30.10
2017-12-01T23:56:37.255Z,29.40
2017-12-01T23:59:05.521Z,29.73
